createdAt,value
2024-01-09T00:00:29.711Z,4.00
2024-01-09T00:05:32.135Z,4.30
2024-01-09T00:10:34.039Z,4.37
2024-01-09T00:15:35.905Z,4.57
2024-01-09T00:20:37.741Z,3.93
2024-01-09T00:25:39.560Z,4.07
2024-01-09T00:30:41.738Z,4.23
2024-01-09T00:35:44.056Z,3.67
2024-01-09T00:40:46.292Z,4.20
2024-01-09T00:45:48.082Z,3.87
2024-01-09T00:50:50.044Z,4.13
2024-01-09T00:55:52.176Z,3.83
2024-01-09T01:00:53.987Z,3.97
2024-01-09T01:05:55.901Z,4.27
2024-01-09T01:10:57.644Z,4.00
2024-01-09T01:15:59.520Z,3.60
2024-01-09T01:21:01.312Z,3.87
2024-01-09T01:26:03.325Z,4.30
2024-01-09T01:31:05.318Z,4.23
2024-01-09T01:36:07.171Z,4.00
2024-01-09T01:41:09.032Z,4.10
2024-01-09T01:46:11.082Z,4.10
2024-01-09T01:51:13.173Z,4.00
2024-01-09T01:56:15.201Z,3.97
2024-01-09T02:01:17.777Z,3.83
2024-01-09T02:06:19.690Z,4.00
2024-01-09T02:11:22.328Z,4.20
2024-01-09T02:16:24.184Z,4.17
2024-01-09T02:21:25.928Z,4.20
2024-01-09T02:26:46.306Z,3.90
2024-01-09T02:31:55.288Z,4.20
2024-01-09T02:36:57.138Z,3.53
2024-01-09T02:41:58.950Z,4.10
2024-01-09T02:47:01.015Z,3.97
2024-01-09T02:52:03.443Z,3.90
2024-01-09T02:57:05.402Z,3.97
2024-01-09T03:02:07.295Z,3.60
2024-01-09T03:07:09.336Z,3.67
2024-01-09T03:12:11.251Z,4.17
2024-01-09T03:17:13.131Z,3.80
2024-01-09T03:22:14.980Z,4.17
2024-01-09T03:27:16.788Z,3.80
2024-01-09T03:32:18.548Z,3.80
2024-01-09T03:37:20.346Z,3.67
2024-01-09T03:42:22.053Z,3.43
2024-01-09T03:47:23.860Z,4.03
2024-01-09T03:52:26.262Z,3.93
2024-01-09T03:57:28.052Z,4.03
2024-01-09T04:02:29.857Z,3.93
2024-01-09T04:07:31.862Z,4.20
2024-01-09T04:12:34.045Z,4.30
2024-01-09T04:17:35.910Z,4.30
2024-01-09T04:22:37.792Z,4.00
2024-01-09T04:27:39.658Z,4.17
2024-01-09T04:32:41.769Z,4.07
2024-01-09T04:37:43.734Z,3.93
2024-01-09T04:42:45.637Z,3.73
2024-01-09T04:47:47.667Z,4.90
2024-01-09T04:52:49.580Z,4.40
2024-01-09T04:57:51.300Z,4.00
2024-01-09T05:02:54.484Z,4.50
2024-01-09T05:07:56.562Z,4.27
2024-01-09T05:12:59.151Z,4.17
2024-01-09T05:18:02.355Z,4.53
2024-01-09T05:23:04.539Z,4.10
2024-01-09T05:28:06.503Z,4.37
2024-01-09T05:33:08.433Z,5.00
2024-01-09T05:38:18.097Z,3.93
2024-01-09T05:43:21.051Z,4.33
2024-01-09T05:48:23.110Z,4.60
2024-01-09T05:53:25.046Z,4.53
2024-01-09T05:58:26.844Z,4.57
2024-01-09T06:03:28.702Z,4.60
2024-01-09T06:08:30.526Z,4.30
2024-01-09T06:13:32.618Z,5.10
2024-01-09T06:18:34.896Z,4.87
2024-01-09T06:23:36.797Z,4.07
2024-01-09T06:28:38.562Z,4.70
2024-01-09T06:33:40.422Z,4.10
2024-01-09T06:38:42.680Z,4.37
2024-01-09T06:43:45.190Z,4.43
2024-01-09T06:48:47.139Z,4.60
2024-01-09T06:53:49.124Z,4.57
2024-01-09T06:58:53.188Z,4.13
2024-01-09T07:03:55.904Z,4.80
2024-01-09T07:08:58.022Z,4.60
2024-01-09T07:13:59.825Z,4.67
2024-01-09T07:19:02.072Z,5.03
2024-01-09T07:24:04.160Z,5.23
2024-01-09T07:29:06.189Z,5.30
2024-01-09T07:34:08.081Z,4.97
2024-01-09T07:39:11.078Z,4.97
2024-01-09T07:44:13.241Z,5.50
2024-01-09T07:49:15.108Z,5.23
2024-01-09T07:54:16.891Z,5.47
2024-01-09T07:59:18.730Z,5.13
2024-01-09T08:04:20.535Z,5.63
2024-01-09T08:09:22.420Z,5.73
2024-01-09T08:14:24.337Z,5.73
2024-01-09T08:19:26.138Z,5.63
2024-01-09T08:24:27.973Z,5.27
2024-01-09T08:29:29.757Z,5.60
2024-01-09T08:34:31.705Z,5.43
2024-01-09T08:39:33.576Z,5.67
2024-01-09T08:44:35.499Z,5.40
2024-01-09T08:49:37.571Z,5.87
2024-01-09T08:54:39.436Z,5.73
2024-01-09T08:59:41.243Z,5.77
2024-01-09T09:04:43.074Z,6.43
2024-01-09T09:09:45.056Z,5.83
2024-01-09T09:14:46.841Z,6.40
2024-01-09T09:19:48.841Z,5.77
2024-01-09T09:24:51.255Z,6.67
2024-01-09T09:29:54.078Z,6.90
2024-01-09T09:34:55.886Z,7.20
2024-01-09T09:39:57.755Z,6.73
2024-01-09T09:45:02.215Z,7.57
2024-01-09T09:50:05.657Z,7.23
2024-01-09T09:55:09.425Z,7.13
2024-01-09T10:00:11.729Z,7.40
2024-01-09T10:05:20.138Z,6.63
2024-01-09T10:10:22.165Z,7.20
2024-01-09T10:15:24.075Z,7.20
2024-01-09T10:20:31.225Z,7.87
2024-01-09T10:25:33.382Z,7.67
2024-01-09T10:30:35.167Z,8.20
2024-01-09T10:35:38.258Z,7.97
2024-01-09T10:40:40.130Z,8.27
2024-01-09T10:45:41.994Z,7.63
2024-01-09T10:50:43.992Z,7.40
2024-01-09T10:55:47.730Z,7.97
2024-01-09T11:00:49.527Z,7.80
2024-01-09T11:06:00.541Z,8.10
2024-01-09T11:11:09.981Z,7.03
2024-01-09T11:16:12.760Z,7.53
2024-01-09T11:21:14.739Z,8.33
2024-01-09T11:26:16.846Z,7.70
2024-01-09T11:31:23.157Z,8.17
2024-01-09T11:36:27.880Z,8.15
2024-01-09T11:41:35.436Z,8.37
2024-01-09T11:46:39.181Z,7.70
2024-01-09T11:51:41.251Z,7.90
2024-01-09T11:56:43.183Z,7.00
2024-01-09T12:01:47.297Z,8.60
2024-01-09T12:06:49.350Z,8.63
2024-01-09T12:11:51.329Z,8.75
2024-01-09T12:16:53.488Z,9.30
2024-01-09T12:21:55.984Z,7.80
2024-01-09T12:26:58.106Z,8.32
2024-01-09T12:31:59.956Z,8.50
2024-01-09T12:37:06.510Z,8.10
2024-01-09T12:42:16.251Z,8.70
2024-01-09T12:47:18.526Z,9.20
2024-01-09T12:52:21.898Z,8.38
2024-01-09T12:57:24.105Z,9.35
2024-01-09T13:02:26.359Z,8.68
2024-01-09T13:07:28.573Z,8.55
2024-01-09T13:12:30.468Z,8.35
2024-01-09T13:17:32.561Z,8.43
2024-01-09T13:23:46.635Z,7.50
2024-01-09T13:27:57.918Z,8.27
2024-01-09T13:33:01.514Z,7.55
2024-01-09T13:38:07.984Z,7.78
2024-01-09T13:43:09.837Z,8.43
2024-01-09T13:48:13.577Z,8.02
2024-01-09T13:53:19.149Z,8.45
2024-01-09T13:58:21.108Z,7.70
2024-01-09T14:03:23.312Z,8.30
2024-01-09T14:08:25.236Z,8.57
2024-01-09T14:13:27.096Z,8.25
2024-01-09T14:18:29.300Z,8.00
2024-01-09T14:23:31.129Z,8.45
2024-01-09T14:28:33.119Z,8.10
2024-01-09T14:33:35.057Z,7.88
2024-01-09T14:38:36.929Z,8.35
2024-01-09T14:43:42.375Z,8.18
2024-01-09T14:48:44.989Z,8.45
2024-01-09T14:53:47.280Z,8.20
2024-01-09T14:58:49.207Z,7.78
2024-01-09T15:03:52.009Z,8.20
2024-01-09T15:08:57.842Z,7.85
2024-01-09T15:13:59.708Z,8.52
2024-01-09T15:19:01.575Z,8.05
2024-01-09T15:24:04.840Z,7.97
2024-01-09T15:29:09.049Z,8.50
2024-01-09T15:34:11.146Z,8.43
2024-01-09T15:39:13.234Z,7.85
2024-01-09T15:44:15.065Z,7.90
2024-01-09T15:49:17.241Z,8.48
2024-01-09T15:54:20.712Z,7.95
2024-01-09T15:59:22.513Z,7.53
2024-01-09T16:04:24.278Z,8.53
2024-01-09T16:09:26.212Z,8.10
2024-01-09T16:14:27.991Z,8.30
2024-01-09T16:19:29.832Z,8.65
2024-01-09T16:24:31.698Z,9.15
2024-01-09T16:29:33.676Z,8.57
2024-01-09T16:34:35.581Z,8.55
2024-01-09T16:39:37.612Z,8.82
2024-01-09T16:44:39.331Z,8.13
2024-01-09T16:49:43.320Z,9.40
2024-01-09T16:54:45.627Z,8.55
2024-01-09T16:59:47.733Z,9.63
2024-01-09T17:04:50.266Z,8.88
2024-01-09T17:09:52.103Z,8.85
2024-01-09T17:14:54.021Z,8.93
2024-01-09T17:19:55.841Z,9.75
2024-01-09T17:24:57.693Z,10.10
2024-01-09T17:29:59.582Z,10.27
2024-01-09T17:35:02.052Z,10.35
2024-01-09T17:40:04.396Z,10.02
2024-01-09T17:45:06.919Z,10.45
2024-01-09T17:50:09.513Z,10.27
2024-01-09T17:55:11.461Z,10.35
2024-01-09T18:00:14.195Z,10.63
2024-01-09T18:05:16.785Z,10.55
2024-01-09T18:10:19.040Z,9.85
2024-01-09T18:15:21.876Z,10.55
2024-01-09T18:20:23.675Z,10.52
2024-01-09T18:25:25.440Z,10.38
2024-01-09T18:30:27.438Z,10.57
2024-01-09T18:35:29.584Z,10.65
2024-01-09T18:40:32.044Z,10.55
2024-01-09T18:45:33.981Z,9.65
2024-01-09T18:50:36.075Z,10.05
2024-01-09T18:55:37.908Z,10.65
2024-01-09T19:00:40.126Z,9.80
2024-01-09T19:05:42.310Z,10.32
2024-01-09T19:10:44.418Z,10.23
2024-01-09T19:15:46.283Z,10.32
2024-01-09T19:20:48.080Z,10.07
2024-01-09T19:25:49.888Z,9.65
2024-01-09T19:30:51.873Z,10.48
2024-01-09T19:35:53.661Z,10.25
2024-01-09T19:40:55.518Z,10.50
2024-01-09T19:45:57.325Z,11.53
2024-01-09T19:50:59.025Z,10.43
2024-01-09T19:56:01.768Z,10.53
2024-01-09T20:01:06.566Z,11.00
2024-01-09T20:06:26.967Z,11.07
2024-01-09T20:11:29.559Z,10.23
2024-01-09T20:16:32.502Z,10.57
2024-01-09T20:21:36.757Z,10.82
2024-01-09T20:26:39.601Z,10.77
2024-01-09T20:31:45.506Z,10.43
2024-01-09T20:36:47.440Z,11.03
2024-01-09T20:41:49.474Z,10.95
2024-01-09T20:46:51.503Z,10.53
2024-01-09T20:51:54.578Z,11.00
2024-01-09T20:56:56.343Z,11.17
2024-01-09T21:01:58.427Z,11.30
2024-01-09T21:07:00.298Z,11.30
2024-01-09T21:12:02.404Z,11.17
2024-01-09T21:17:04.513Z,10.80
2024-01-09T21:22:06.388Z,11.33
2024-01-09T21:27:08.937Z,11.17
2024-01-09T21:32:14.586Z,10.73
2024-01-09T21:37:16.455Z,10.83
2024-01-09T21:42:18.308Z,11.43
2024-01-09T21:47:20.322Z,11.20
2024-01-09T21:52:22.194Z,11.43
2024-01-09T21:57:25.283Z,12.23
2024-01-09T22:02:27.494Z,10.90
2024-01-09T22:07:29.264Z,11.07
2024-01-09T22:12:31.109Z,11.57
2024-01-09T22:17:33.200Z,11.53
2024-01-09T22:22:35.085Z,11.40
2024-01-09T22:27:37.112Z,11.07
2024-01-09T22:32:39.074Z,10.53
2024-01-09T22:37:40.966Z,10.80
2024-01-09T22:42:42.803Z,10.77
2024-01-09T22:47:45.452Z,11.23
2024-01-09T22:52:47.707Z,10.37
2024-01-09T22:57:49.482Z,11.50
2024-01-09T23:02:57.196Z,11.03
2024-01-09T23:07:59.924Z,11.30
2024-01-09T23:13:01.949Z,11.57
2024-01-09T23:18:04.288Z,10.33
2024-01-09T23:23:06.606Z,10.47
2024-01-09T23:28:08.434Z,10.80
2024-01-09T23:33:11.853Z,11.10
2024-01-09T23:38:13.694Z,11.07
2024-01-09T23:43:15.538Z,10.93
2024-01-09T23:48:17.857Z,13.10
2024-01-09T23:53:19.987Z,11.83
2024-01-09T23:58:21.905Z,11.67
